sensor_id;sensor_type;location;lat;lon;timestamp;P1;durP1;ratioP1;P2;durP2;ratioP2
21771;SDS011;11047;47.904;8.110;2022-09-21T00:01:54;2.30;;;1.45;;
21771;SDS011;11047;47.904;8.110;2022-09-21T00:04:21;3.35;;;1.50;;
21771;SDS011;11047;47.904;8.110;2022-09-21T00:06:48;2.55;;;1.70;;
21771;SDS011;11047;47.904;8.110;2022-09-21T00:09:15;2.42;;;1.60;;
21771;SDS011;11047;47.904;8.110;2022-09-21T00:11:43;9.07;;;1.77;;
21771;SDS011;11047;47.904;8.110;2022-09-21T00:14:12;2.70;;;1.63;;
21771;SDS011;11047;47.904;8.110;2022-09-21T00:16:39;5.43;;;1.48;;
21771;SDS011;11047;47.904;8.110;2022-09-21T00:19:07;3.78;;;1.55;;
21771;SDS011;11047;47.904;8.110;2022-09-21T00:21:34;4.40;;;1.65;;
21771;SDS011;11047;47.904;8.110;2022-09-21T00:24:02;2.53;;;1.33;;
21771;SDS011;11047;47.904;8.110;2022-09-21T00:26:29;3.78;;;1.85;;
21771;SDS011;11047;47.904;8.110;2022-09-21T00:28:59;4.32;;;1.92;;
21771;SDS011;11047;47.904;8.110;2022-09-21T00:31:28;1.55;;;1.45;;
21771;SDS011;11047;47.904;8.110;2022-09-21T00:33:56;3.33;;;1.45;;
21771;SDS011;11047;47.904;8.110;2022-09-21T00:36:24;2.60;;;1.60;;
21771;SDS011;11047;47.904;8.110;2022-09-21T00:38:52;6.45;;;1.67;;
21771;SDS011;11047;47.904;8.110;2022-09-21T00:41:20;2.65;;;1.70;;
21771;SDS011;11047;47.904;8.110;2022-09-21T00:43:48;2.03;;;1.73;;
21771;SDS011;11047;47.904;8.110;2022-09-21T00:46:46;2.33;;;1.20;;
21771;SDS011;11047;47.904;8.110;2022-09-21T00:49:14;1.98;;;1.30;;
21771;SDS011;11047;47.904;8.110;2022-09-21T00:51:42;4.18;;;1.92;;
21771;SDS011;11047;47.904;8.110;2022-09-21T00:54:11;2.47;;;1.60;;
21771;SDS011;11047;47.904;8.110;2022-09-21T00:56:40;3.40;;;1.25;;
21771;SDS011;11047;47.904;8.110;2022-09-21T00:59:09;2.50;;;1.50;;
21771;SDS011;11047;47.904;8.110;2022-09-21T01:01:39;3.67;;;1.40;;
21771;SDS011;11047;47.904;8.110;2022-09-21T01:04:07;2.90;;;1.60;;
21771;SDS011;11047;47.904;8.110;2022-09-21T01:06:35;2.22;;;1.45;;
21771;SDS011;11047;47.904;8.110;2022-09-21T01:09:03;4.75;;;1.55;;
21771;SDS011;11047;47.904;8.110;2022-09-21T01:11:32;6.80;;;1.90;;
21771;SDS011;11047;47.904;8.110;2022-09-21T01:14:09;3.10;;;1.80;;
21771;SDS011;11047;47.904;8.110;2022-09-21T01:16:59;3.15;;;1.80;;
21771;SDS011;11047;47.904;8.110;2022-09-21T01:19:38;4.13;;;1.58;;
21771;SDS011;11047;47.904;8.110;2022-09-21T01:22:30;5.18;;;1.50;;
21771;SDS011;11047;47.904;8.110;2022-09-21T01:25:08;4.35;;;1.48;;
21771;SDS011;11047;47.904;8.110;2022-09-21T01:27:51;2.67;;;1.75;;
21771;SDS011;11047;47.904;8.110;2022-09-21T01:30:29;2.13;;;1.50;;
21771;SDS011;11047;47.904;8.110;2022-09-21T01:33:02;2.88;;;1.65;;
21771;SDS011;11047;47.904;8.110;2022-09-21T01:35:35;2.08;;;1.30;;
21771;SDS011;11047;47.904;8.110;2022-09-21T01:38:06;8.20;;;1.58;;
21771;SDS011;11047;47.904;8.110;2022-09-21T01:40:36;3.03;;;1.58;;
21771;SDS011;11047;47.904;8.110;2022-09-21T01:43:07;1.83;;;1.50;;
21771;SDS011;11047;47.904;8.110;2022-09-21T01:45:40;1.98;;;1.60;;
21771;SDS011;11047;47.904;8.110;2022-09-21T01:50:40;2.33;;;1.58;;
21771;SDS011;11047;47.904;8.110;2022-09-21T01:53:12;2.35;;;1.20;;
21771;SDS011;11047;47.904;8.110;2022-09-21T01:55:43;3.33;;;1.65;;
21771;SDS011;11047;47.904;8.110;2022-09-21T01:58:15;1.55;;;1.40;;
21771;SDS011;11047;47.904;8.110;2022-09-21T02:00:48;5.45;;;1.40;;
21771;SDS011;11047;47.904;8.110;2022-09-21T02:03:18;2.42;;;1.55;;
21771;SDS011;11047;47.904;8.110;2022-09-21T02:05:49;2.35;;;1.50;;
21771;SDS011;11047;47.904;8.110;2022-09-21T02:08:16;1.65;;;1.30;;
21771;SDS011;11047;47.904;8.110;2022-09-21T02:10:44;3.22;;;1.48;;
21771;SDS011;11047;47.904;8.110;2022-09-21T02:13:13;3.78;;;1.60;;
21771;SDS011;11047;47.904;8.110;2022-09-21T02:15:46;3.85;;;1.90;;
21771;SDS011;11047;47.904;8.110;2022-09-21T02:18:27;4.90;;;1.58;;
21771;SDS011;11047;47.904;8.110;2022-09-21T02:21:04;5.78;;;1.80;;
21771;SDS011;11047;47.904;8.110;2022-09-21T02:23:39;2.17;;;1.50;;
21771;SDS011;11047;47.904;8.110;2022-09-21T02:26:14;2.30;;;1.55;;
21771;SDS011;11047;47.904;8.110;2022-09-21T02:28:48;3.45;;;1.70;;
21771;SDS011;11047;47.904;8.110;2022-09-21T02:31:23;6.38;;;1.73;;
21771;SDS011;11047;47.904;8.110;2022-09-21T02:34:10;4.68;;;1.95;;
21771;SDS011;11047;47.904;8.110;2022-09-21T02:36:45;2.70;;;1.60;;
21771;SDS011;11047;47.904;8.110;2022-09-21T02:39:15;4.95;;;1.60;;
21771;SDS011;11047;47.904;8.110;2022-09-21T02:41:48;3.50;;;1.98;;
21771;SDS011;11047;47.904;8.110;2022-09-21T02:44:27;2.17;;;1.48;;
21771;SDS011;11047;47.904;8.110;2022-09-21T02:47:00;2.30;;;1.70;;
21771;SDS011;11047;47.904;8.110;2022-09-21T02:49:32;2.38;;;1.60;;
21771;SDS011;11047;47.904;8.110;2022-09-21T02:52:03;2.05;;;1.48;;
21771;SDS011;11047;47.904;8.110;2022-09-21T02:54:33;3.00;;;1.70;;
21771;SDS011;11047;47.904;8.110;2022-09-21T02:57:03;2.15;;;1.77;;
21771;SDS011;11047;47.904;8.110;2022-09-21T02:59:32;2.85;;;1.50;;
21771;SDS011;11047;47.904;8.110;2022-09-21T03:02:00;2.22;;;1.52;;
21771;SDS011;11047;47.904;8.110;2022-09-21T03:04:27;2.08;;;1.40;;
21771;SDS011;11047;47.904;8.110;2022-09-21T03:06:54;2.72;;;1.40;;
21771;SDS011;11047;47.904;8.110;2022-09-21T03:09:21;4.68;;;1.80;;
21771;SDS011;11047;47.904;8.110;2022-09-21T03:11:48;2.92;;;1.40;;
21771;SDS011;11047;47.904;8.110;2022-09-21T03:14:15;6.18;;;1.48;;
21771;SDS011;11047;47.904;8.110;2022-09-21T03:16:43;3.63;;;1.73;;
21771;SDS011;11047;47.904;8.110;2022-09-21T03:19:11;5.68;;;1.77;;
21771;SDS011;11047;47.904;8.110;2022-09-21T03:21:39;5.50;;;1.75;;
21771;SDS011;11047;47.904;8.110;2022-09-21T03:24:05;4.85;;;1.75;;
21771;SDS011;11047;47.904;8.110;2022-09-21T03:26:32;3.25;;;1.98;;
21771;SDS011;11047;47.904;8.110;2022-09-21T03:29:00;2.30;;;1.40;;
21771;SDS011;11047;47.904;8.110;2022-09-21T03:31:29;2.45;;;1.60;;
21771;SDS011;11047;47.904;8.110;2022-09-21T03:33:56;3.00;;;1.70;;
21771;SDS011;11047;47.904;8.110;2022-09-21T03:36:24;1.55;;;1.45;;
21771;SDS011;11047;47.904;8.110;2022-09-21T03:38:51;2.33;;;2.00;;
21771;SDS011;11047;47.904;8.110;2022-09-21T03:41:18;4.03;;;2.13;;
21771;SDS011;11047;47.904;8.110;2022-09-21T03:43:45;9.52;;;1.85;;
21771;SDS011;11047;47.904;8.110;2022-09-21T03:46:12;13.45;;;2.60;;
21771;SDS011;11047;47.904;8.110;2022-09-21T03:48:39;6.35;;;1.90;;
21771;SDS011;11047;47.904;8.110;2022-09-21T03:51:06;31.27;;;2.50;;
21771;SDS011;11047;47.904;8.110;2022-09-21T03:53:34;36.28;;;2.70;;
21771;SDS011;11047;47.904;8.110;2022-09-21T03:56:01;14.50;;;2.40;;
21771;SDS011;11047;47.904;8.110;2022-09-21T03:58:28;19.92;;;2.80;;
21771;SDS011;11047;47.904;8.110;2022-09-21T04:00:59;14.95;;;2.10;;
21771;SDS011;11047;47.904;8.110;2022-09-21T04:03:27;13.68;;;2.30;;
21771;SDS011;11047;47.904;8.110;2022-09-21T04:05:54;5.65;;;1.88;;
21771;SDS011;11047;47.904;8.110;2022-09-21T04:08:21;7.55;;;1.92;;
21771;SDS011;11047;47.904;8.110;2022-09-21T04:10:50;44.13;;;2.60;;
21771;SDS011;11047;47.904;8.110;2022-09-21T04:13:17;22.45;;;2.20;;
21771;SDS011;11047;47.904;8.110;2022-09-21T04:15:43;28.55;;;2.40;;
21771;SDS011;11047;47.904;8.110;2022-09-21T04:18:10;29.38;;;2.45;;
21771;SDS011;11047;47.904;8.110;2022-09-21T04:20:37;17.90;;;2.22;;
21771;SDS011;11047;47.904;8.110;2022-09-21T04:23:05;35.83;;;3.05;;
21771;SDS011;11047;47.904;8.110;2022-09-21T04:25:33;69.90;;;3.60;;
21771;SDS011;11047;47.904;8.110;2022-09-21T04:28:02;49.17;;;2.85;;
21771;SDS011;11047;47.904;8.110;2022-09-21T04:30:29;57.17;;;2.90;;
21771;SDS011;11047;47.904;8.110;2022-09-21T04:32:57;1.65;;;1.55;;
21771;SDS011;11047;47.904;8.110;2022-09-21T04:35:24;2.53;;;1.95;;
21771;SDS011;11047;47.904;8.110;2022-09-21T04:37:53;1.83;;;1.65;;
21771;SDS011;11047;47.904;8.110;2022-09-21T04:40:20;1.60;;;1.50;;
21771;SDS011;11047;47.904;8.110;2022-09-21T04:42:49;4.03;;;1.60;;
21771;SDS011;11047;47.904;8.110;2022-09-21T04:45:17;1.98;;;1.55;;
21771;SDS011;11047;47.904;8.110;2022-09-21T04:47:44;1.38;;;1.23;;
21771;SDS011;11047;47.904;8.110;2022-09-21T04:50:11;3.63;;;1.70;;
21771;SDS011;11047;47.904;8.110;2022-09-21T04:52:38;2.67;;;1.40;;
21771;SDS011;11047;47.904;8.110;2022-09-21T04:55:06;1.52;;;1.40;;
21771;SDS011;11047;47.904;8.110;2022-09-21T04:57:33;2.63;;;1.90;;
21771;SDS011;11047;47.904;8.110;2022-09-21T05:00:00;13.63;;;1.65;;
21771;SDS011;11047;47.904;8.110;2022-09-21T05:02:30;7.68;;;1.73;;
21771;SDS011;11047;47.904;8.110;2022-09-21T05:04:57;13.20;;;1.50;;
21771;SDS011;11047;47.904;8.110;2022-09-21T05:07:23;4.47;;;1.52;;
21771;SDS011;11047;47.904;8.110;2022-09-21T05:09:50;2.70;;;1.83;;
21771;SDS011;11047;47.904;8.110;2022-09-21T05:12:37;16.42;;;1.90;;
21771;SDS011;11047;47.904;8.110;2022-09-21T05:15:06;16.00;;;2.22;;
21771;SDS011;11047;47.904;8.110;2022-09-21T05:17:35;60.88;;;2.88;;
21771;SDS011;11047;47.904;8.110;2022-09-21T05:20:03;11.70;;;1.73;;
21771;SDS011;11047;47.904;8.110;2022-09-21T05:22:30;16.83;;;1.80;;
21771;SDS011;11047;47.904;8.110;2022-09-21T05:24:57;25.10;;;2.42;;
21771;SDS011;11047;47.904;8.110;2022-09-21T05:27:24;22.40;;;2.47;;
21771;SDS011;11047;47.904;8.110;2022-09-21T05:29:51;37.38;;;2.15;;
21771;SDS011;11047;47.904;8.110;2022-09-21T05:32:19;19.25;;;2.10;;
21771;SDS011;11047;47.904;8.110;2022-09-21T05:34:58;37.17;;;2.55;;
21771;SDS011;11047;47.904;8.110;2022-09-21T05:37:35;19.90;;;1.77;;
21771;SDS011;11047;47.904;8.110;2022-09-21T05:40:11;10.65;;;1.70;;
21771;SDS011;11047;47.904;8.110;2022-09-21T05:42:39;79.90;;;2.97;;
21771;SDS011;11047;47.904;8.110;2022-09-21T05:45:08;38.08;;;1.95;;
21771;SDS011;11047;47.904;8.110;2022-09-21T05:47:39;29.70;;;2.22;;
21771;SDS011;11047;47.904;8.110;2022-09-21T05:50:19;43.70;;;2.30;;
21771;SDS011;11047;47.904;8.110;2022-09-21T05:53:01;11.18;;;2.00;;
21771;SDS011;11047;47.904;8.110;2022-09-21T05:55:44;4.97;;;1.50;;
21771;SDS011;11047;47.904;8.110;2022-09-21T05:58:19;43.40;;;2.65;;
21771;SDS011;11047;47.904;8.110;2022-09-21T06:00:54;27.92;;;2.10;;
21771;SDS011;11047;47.904;8.110;2022-09-21T06:03:29;12.77;;;1.92;;
21771;SDS011;11047;47.904;8.110;2022-09-21T06:06:01;30.92;;;2.05;;
21771;SDS011;11047;47.904;8.110;2022-09-21T06:08:28;21.73;;;2.20;;
21771;SDS011;11047;47.904;8.110;2022-09-21T06:10:55;19.58;;;1.90;;
21771;SDS011;11047;47.904;8.110;2022-09-21T06:13:22;3.67;;;1.75;;
21771;SDS011;11047;47.904;8.110;2022-09-21T06:15:50;1.55;;;1.40;;
21771;SDS011;11047;47.904;8.110;2022-09-21T06:18:18;1.77;;;1.67;;
21771;SDS011;11047;47.904;8.110;2022-09-21T06:20:45;2.22;;;1.80;;
21771;SDS011;11047;47.904;8.110;2022-09-21T06:23:13;2.03;;;1.83;;
21771;SDS011;11047;47.904;8.110;2022-09-21T06:25:40;2.00;;;1.70;;
21771;SDS011;11047;47.904;8.110;2022-09-21T06:28:07;2.42;;;1.88;;
21771;SDS011;11047;47.904;8.110;2022-09-21T06:30:36;3.47;;;2.13;;
21771;SDS011;11047;47.904;8.110;2022-09-21T06:33:06;3.08;;;1.90;;
21771;SDS011;11047;47.904;8.110;2022-09-21T06:35:34;2.92;;;2.15;;
21771;SDS011;11047;47.904;8.110;2022-09-21T06:38:02;3.25;;;2.20;;
21771;SDS011;11047;47.904;8.110;2022-09-21T06:40:32;2.88;;;2.25;;
21771;SDS011;11047;47.904;8.110;2022-09-21T06:43:00;3.00;;;2.35;;
21771;SDS011;11047;47.904;8.110;2022-09-21T06:45:28;3.25;;;2.40;;
21771;SDS011;11047;47.904;8.110;2022-09-21T06:47:56;4.28;;;2.58;;
21771;SDS011;11047;47.904;8.110;2022-09-21T06:50:23;5.57;;;2.80;;
21771;SDS011;11047;47.904;8.110;2022-09-21T06:52:51;2.70;;;2.50;;
21771;SDS011;11047;47.904;8.110;2022-09-21T06:55:18;3.80;;;2.90;;
21771;SDS011;11047;47.904;8.110;2022-09-21T06:57:46;2.83;;;2.45;;
21771;SDS011;11047;47.904;8.110;2022-09-21T07:00:13;4.35;;;2.88;;
21771;SDS011;11047;47.904;8.110;2022-09-21T07:02:41;3.30;;;2.83;;
21771;SDS011;11047;47.904;8.110;2022-09-21T07:05:09;3.75;;;2.95;;
21771;SDS011;11047;47.904;8.110;2022-09-21T07:07:36;3.30;;;2.70;;
21771;SDS011;11047;47.904;8.110;2022-09-21T07:10:04;3.50;;;2.65;;
21771;SDS011;11047;47.904;8.110;2022-09-21T07:12:32;3.15;;;2.80;;
21771;SDS011;11047;47.904;8.110;2022-09-21T07:15:01;3.08;;;2.78;;
21771;SDS011;11047;47.904;8.110;2022-09-21T07:17:32;6.75;;;3.10;;
21771;SDS011;11047;47.904;8.110;2022-09-21T07:19:59;3.60;;;2.42;;
21771;SDS011;11047;47.904;8.110;2022-09-21T07:22:27;5.38;;;3.95;;
21771;SDS011;11047;47.904;8.110;2022-09-21T07:24:54;11.95;;;4.10;;
21771;SDS011;11047;47.904;8.110;2022-09-21T07:27:22;4.65;;;3.47;;
21771;SDS011;11047;47.904;8.110;2022-09-21T07:29:49;6.22;;;2.88;;
21771;SDS011;11047;47.904;8.110;2022-09-21T07:32:17;5.60;;;3.33;;
21771;SDS011;11047;47.904;8.110;2022-09-21T07:34:44;7.25;;;2.97;;
21771;SDS011;11047;47.904;8.110;2022-09-21T07:37:11;3.30;;;2.90;;
21771;SDS011;11047;47.904;8.110;2022-09-21T07:39:39;4.95;;;3.10;;
21771;SDS011;11047;47.904;8.110;2022-09-21T07:42:06;6.95;;;3.10;;
21771;SDS011;11047;47.904;8.110;2022-09-21T07:44:33;4.93;;;2.92;;
21771;SDS011;11047;47.904;8.110;2022-09-21T07:47:00;6.53;;;2.65;;
21771;SDS011;11047;47.904;8.110;2022-09-21T07:49:28;6.57;;;2.92;;
21771;SDS011;11047;47.904;8.110;2022-09-21T07:51:55;3.40;;;1.88;;
21771;SDS011;11047;47.904;8.110;2022-09-21T07:54:22;2.60;;;1.83;;
21771;SDS011;11047;47.904;8.110;2022-09-21T07:56:49;6.10;;;1.80;;
21771;SDS011;11047;47.904;8.110;2022-09-21T07:59:30;3.53;;;1.63;;
21771;SDS011;11047;47.904;8.110;2022-09-21T08:01:57;4.75;;;1.38;;
21771;SDS011;11047;47.904;8.110;2022-09-21T08:04:25;5.18;;;1.13;;
21771;SDS011;11047;47.904;8.110;2022-09-21T08:06:53;4.63;;;1.83;;
21771;SDS011;11047;47.904;8.110;2022-09-21T08:09:20;3.63;;;1.63;;
21771;SDS011;11047;47.904;8.110;2022-09-21T08:11:47;1.88;;;1.23;;
21771;SDS011;11047;47.904;8.110;2022-09-21T08:14:16;1.50;;;1.20;;
21771;SDS011;11047;47.904;8.110;2022-09-21T08:16:44;4.68;;;1.55;;
21771;SDS011;11047;47.904;8.110;2022-09-21T08:19:12;3.42;;;1.48;;
21771;SDS011;11047;47.904;8.110;2022-09-21T08:21:39;3.88;;;1.67;;
21771;SDS011;11047;47.904;8.110;2022-09-21T08:24:07;4.10;;;1.45;;
21771;SDS011;11047;47.904;8.110;2022-09-21T08:26:34;1.58;;;1.15;;
21771;SDS011;11047;47.904;8.110;2022-09-21T08:29:02;2.95;;;1.33;;
21771;SDS011;11047;47.904;8.110;2022-09-21T08:31:30;3.58;;;1.70;;
21771;SDS011;11047;47.904;8.110;2022-09-21T08:33:57;3.80;;;1.77;;
21771;SDS011;11047;47.904;8.110;2022-09-21T08:36:24;4.75;;;1.58;;
21771;SDS011;11047;47.904;8.110;2022-09-21T08:38:51;3.20;;;1.60;;
21771;SDS011;11047;47.904;8.110;2022-09-21T08:41:23;2.78;;;1.52;;
21771;SDS011;11047;47.904;8.110;2022-09-21T08:43:57;3.08;;;1.50;;
21771;SDS011;11047;47.904;8.110;2022-09-21T08:46:28;4.60;;;1.77;;
21771;SDS011;11047;47.904;8.110;2022-09-21T08:48:58;2.58;;;1.50;;
21771;SDS011;11047;47.904;8.110;2022-09-21T08:51:28;4.80;;;1.70;;
21771;SDS011;11047;47.904;8.110;2022-09-21T08:53:58;2.67;;;1.40;;
21771;SDS011;11047;47.904;8.110;2022-09-21T08:56:31;5.07;;;2.28;;
21771;SDS011;11047;47.904;8.110;2022-09-21T08:59:00;3.13;;;1.52;;
21771;SDS011;11047;47.904;8.110;2022-09-21T09:01:40;5.65;;;1.83;;
21771;SDS011;11047;47.904;8.110;2022-09-21T11:36:01;1.40;;;0.60;;
21771;SDS011;11047;47.904;8.110;2022-09-21T11:38:38;1.17;;;0.60;;
21771;SDS011;11047;47.904;8.110;2022-09-21T11:41:15;1.33;;;0.73;;
21771;SDS011;11047;47.904;8.110;2022-09-21T11:43:54;0.95;;;0.52;;
21771;SDS011;11047;47.904;8.110;2022-09-21T11:46:32;1.73;;;0.60;;
21771;SDS011;11047;47.904;8.110;2022-09-21T11:49:13;0.40;;;0.40;;
21771;SDS011;11047;47.904;8.110;2022-09-21T11:51:59;0.47;;;0.45;;
21771;SDS011;11047;47.904;8.110;2022-09-21T11:54:41;1.17;;;0.60;;
21771;SDS011;11047;47.904;8.110;2022-09-21T11:57:19;2.05;;;0.50;;
21771;SDS011;11047;47.904;8.110;2022-09-21T12:02:53;0.70;;;0.60;;
21771;SDS011;11047;47.904;8.110;2022-09-21T12:05:42;0.80;;;0.60;;
21771;SDS011;11047;47.904;8.110;2022-09-21T12:11:17;1.58;;;0.55;;
21771;SDS011;11047;47.904;8.110;2022-09-21T12:13:53;2.28;;;0.60;;
21771;SDS011;11047;47.904;8.110;2022-09-21T12:16:28;0.57;;;0.45;;
21771;SDS011;11047;47.904;8.110;2022-09-21T12:19:02;1.13;;;0.40;;
21771;SDS011;11047;47.904;8.110;2022-09-21T12:21:35;1.70;;;0.60;;
21771;SDS011;11047;47.904;8.110;2022-09-21T12:24:13;1.85;;;0.50;;
21771;SDS011;11047;47.904;8.110;2022-09-21T12:26:45;0.60;;;0.40;;
21771;SDS011;11047;47.904;8.110;2022-09-21T12:29:16;1.63;;;0.60;;
21771;SDS011;11047;47.904;8.110;2022-09-21T12:34:29;0.70;;;0.50;;
21771;SDS011;11047;47.904;8.110;2022-09-21T12:37:07;1.23;;;0.50;;
21771;SDS011;11047;47.904;8.110;2022-09-21T12:39:41;1.45;;;0.32;;
21771;SDS011;11047;47.904;8.110;2022-09-21T12:42:21;2.22;;;0.57;;
21771;SDS011;11047;47.904;8.110;2022-09-21T12:44:54;4.03;;;0.52;;
21771;SDS011;11047;47.904;8.110;2022-09-21T12:47:28;1.88;;;0.63;;
21771;SDS011;11047;47.904;8.110;2022-09-21T12:50:14;0.30;;;0.30;;
21771;SDS011;11047;47.904;8.110;2022-09-21T12:52:45;2.20;;;0.50;;
21771;SDS011;11047;47.904;8.110;2022-09-21T12:55:20;1.08;;;0.40;;
21771;SDS011;11047;47.904;8.110;2022-09-21T12:57:58;1.42;;;0.50;;
21771;SDS011;11047;47.904;8.110;2022-09-21T13:00:33;1.35;;;0.50;;
21771;SDS011;11047;47.904;8.110;2022-09-21T13:06:39;1.38;;;0.60;;
21771;SDS011;11047;47.904;8.110;2022-09-21T13:12:53;1.42;;;0.52;;
21771;SDS011;11047;47.904;8.110;2022-09-21T13:15:23;0.90;;;0.40;;
21771;SDS011;11047;47.904;8.110;2022-09-21T13:18:00;0.32;;;0.32;;
21771;SDS011;11047;47.904;8.110;2022-09-21T13:20:33;0.77;;;0.45;;
21771;SDS011;11047;47.904;8.110;2022-09-21T13:23:02;1.30;;;0.40;;
21771;SDS011;11047;47.904;8.110;2022-09-21T13:25:41;2.42;;;0.50;;
21771;SDS011;11047;47.904;8.110;2022-09-21T13:30:48;0.43;;;0.20;;
21771;SDS011;11047;47.904;8.110;2022-09-21T13:33:40;0.70;;;0.40;;
21771;SDS011;11047;47.904;8.110;2022-09-21T13:36:32;2.35;;;0.47;;
21771;SDS011;11047;47.904;8.110;2022-09-21T13:39:16;4.70;;;0.55;;
21771;SDS011;11047;47.904;8.110;2022-09-21T13:41:44;0.70;;;0.40;;
21771;SDS011;11047;47.904;8.110;2022-09-21T13:44:36;0.93;;;0.30;;
21771;SDS011;11047;47.904;8.110;2022-09-21T13:47:05;1.08;;;0.47;;
21771;SDS011;11047;47.904;8.110;2022-09-21T13:49:38;0.35;;;0.30;;
21771;SDS011;11047;47.904;8.110;2022-09-21T13:52:21;0.65;;;0.55;;
21771;SDS011;11047;47.904;8.110;2022-09-21T13:54:52;0.75;;;0.30;;
21771;SDS011;11047;47.904;8.110;2022-09-21T13:57:24;0.88;;;0.40;;
21771;SDS011;11047;47.904;8.110;2022-09-21T14:00:04;0.43;;;0.30;;
21771;SDS011;11047;47.904;8.110;2022-09-21T14:02:52;2.50;;;0.30;;
21771;SDS011;11047;47.904;8.110;2022-09-21T14:05:24;0.30;;;0.20;;
21771;SDS011;11047;47.904;8.110;2022-09-21T14:07:55;1.03;;;0.40;;
21771;SDS011;11047;47.904;8.110;2022-09-21T14:10:23;1.65;;;0.35;;
21771;SDS011;11047;47.904;8.110;2022-09-21T14:12:53;1.08;;;0.28;;
21771;SDS011;11047;47.904;8.110;2022-09-21T14:15:31;0.75;;;0.40;;
21771;SDS011;11047;47.904;8.110;2022-09-21T14:18:18;2.17;;;0.52;;
21771;SDS011;11047;47.904;8.110;2022-09-21T14:23:33;0.50;;;0.50;;
21771;SDS011;11047;47.904;8.110;2022-09-21T14:26:03;0.70;;;0.30;;
21771;SDS011;11047;47.904;8.110;2022-09-21T14:28:53;0.40;;;0.40;;
21771;SDS011;11047;47.904;8.110;2022-09-21T14:31:25;1.15;;;0.38;;
21771;SDS011;11047;47.904;8.110;2022-09-21T14:33:56;0.57;;;0.40;;
21771;SDS011;11047;47.904;8.110;2022-09-21T14:36:30;1.08;;;0.40;;
21771;SDS011;11047;47.904;8.110;2022-09-21T14:39:03;0.50;;;0.25;;
21771;SDS011;11047;47.904;8.110;2022-09-21T14:41:35;1.52;;;0.50;;
21771;SDS011;11047;47.904;8.110;2022-09-21T14:46:41;2.45;;;0.55;;
21771;SDS011;11047;47.904;8.110;2022-09-21T14:49:33;2.17;;;0.43;;
21771;SDS011;11047;47.904;8.110;2022-09-21T14:52:19;0.55;;;0.45;;
21771;SDS011;11047;47.904;8.110;2022-09-21T14:54:58;2.95;;;0.43;;
21771;SDS011;11047;47.904;8.110;2022-09-21T14:57:47;3.60;;;0.50;;
21771;SDS011;11047;47.904;8.110;2022-09-21T15:00:24;0.63;;;0.30;;
21771;SDS011;11047;47.904;8.110;2022-09-21T15:03:09;1.98;;;0.40;;
21771;SDS011;11047;47.904;8.110;2022-09-21T15:06:06;1.85;;;0.45;;
21771;SDS011;11047;47.904;8.110;2022-09-21T15:09:03;0.95;;;0.47;;
21771;SDS011;11047;47.904;8.110;2022-09-21T15:12:08;2.22;;;0.40;;
21771;SDS011;11047;47.904;8.110;2022-09-21T15:14:41;0.90;;;0.50;;
21771;SDS011;11047;47.904;8.110;2022-09-21T15:17:21;0.47;;;0.40;;
21771;SDS011;11047;47.904;8.110;2022-09-21T15:19:51;2.15;;;0.55;;
21771;SDS011;11047;47.904;8.110;2022-09-21T15:22:24;2.75;;;0.63;;
21771;SDS011;11047;47.904;8.110;2022-09-21T15:24:52;1.65;;;0.40;;
21771;SDS011;11047;47.904;8.110;2022-09-21T15:27:20;0.75;;;0.55;;
21771;SDS011;11047;47.904;8.110;2022-09-21T15:29:50;2.17;;;0.50;;
21771;SDS011;11047;47.904;8.110;2022-09-21T15:32:23;0.57;;;0.52;;
21771;SDS011;11047;47.904;8.110;2022-09-21T15:34:57;0.88;;;0.50;;
21771;SDS011;11047;47.904;8.110;2022-09-21T15:37:26;0.50;;;0.50;;
21771;SDS011;11047;47.904;8.110;2022-09-21T15:40:00;0.93;;;0.40;;
21771;SDS011;11047;47.904;8.110;2022-09-21T15:42:30;0.68;;;0.30;;
21771;SDS011;11047;47.904;8.110;2022-09-21T15:45:03;1.80;;;0.50;;
21771;SDS011;11047;47.904;8.110;2022-09-21T15:47:39;1.08;;;0.40;;
21771;SDS011;11047;47.904;8.110;2022-09-21T15:50:13;0.22;;;0.22;;
21771;SDS011;11047;47.904;8.110;2022-09-21T15:52:44;2.20;;;0.38;;
21771;SDS011;11047;47.904;8.110;2022-09-21T15:55:15;0.85;;;0.60;;
21771;SDS011;11047;47.904;8.110;2022-09-21T15:57:45;1.38;;;0.50;;
21771;SDS011;11047;47.904;8.110;2022-09-21T16:00:23;0.55;;;0.50;;
21771;SDS011;11047;47.904;8.110;2022-09-21T16:02:54;2.33;;;0.50;;
21771;SDS011;11047;47.904;8.110;2022-09-21T16:05:29;4.85;;;0.88;;
21771;SDS011;11047;47.904;8.110;2022-09-21T16:08:15;3.00;;;0.52;;
21771;SDS011;11047;47.904;8.110;2022-09-21T16:10:47;1.35;;;0.70;;
21771;SDS011;11047;47.904;8.110;2022-09-21T16:13:17;0.50;;;0.50;;
21771;SDS011;11047;47.904;8.110;2022-09-21T16:16:03;5.05;;;0.63;;
21771;SDS011;11047;47.904;8.110;2022-09-21T16:18:39;0.82;;;0.50;;
21771;SDS011;11047;47.904;8.110;2022-09-21T16:21:14;1.35;;;0.40;;
21771;SDS011;11047;47.904;8.110;2022-09-21T16:23:46;1.30;;;0.40;;
21771;SDS011;11047;47.904;8.110;2022-09-21T16:26:17;0.75;;;0.47;;
21771;SDS011;11047;47.904;8.110;2022-09-21T16:28:46;2.03;;;0.60;;
21771;SDS011;11047;47.904;8.110;2022-09-21T16:31:23;0.40;;;0.30;;
21771;SDS011;11047;47.904;8.110;2022-09-21T16:34:03;0.95;;;0.63;;
21771;SDS011;11047;47.904;8.110;2022-09-21T16:36:47;0.40;;;0.30;;
21771;SDS011;11047;47.904;8.110;2022-09-21T16:39:15;2.65;;;0.50;;
21771;SDS011;11047;47.904;8.110;2022-09-21T16:41:47;0.40;;;0.40;;
21771;SDS011;11047;47.904;8.110;2022-09-21T16:44:17;1.38;;;0.65;;
21771;SDS011;11047;47.904;8.110;2022-09-21T16:46:50;1.70;;;0.50;;
21771;SDS011;11047;47.904;8.110;2022-09-21T16:49:19;2.67;;;0.60;;
21771;SDS011;11047;47.904;8.110;2022-09-21T16:51:49;1.75;;;0.77;;
21771;SDS011;11047;47.904;8.110;2022-09-21T16:54:18;1.33;;;0.68;;
21771;SDS011;11047;47.904;8.110;2022-09-21T16:56:49;1.45;;;0.60;;
21771;SDS011;11047;47.904;8.110;2022-09-21T16:59:17;0.80;;;0.43;;
21771;SDS011;11047;47.904;8.110;2022-09-21T17:01:47;1.42;;;0.50;;
21771;SDS011;11047;47.904;8.110;2022-09-21T17:04:16;1.98;;;0.40;;
21771;SDS011;11047;47.904;8.110;2022-09-21T17:06:44;2.55;;;0.50;;
21771;SDS011;11047;47.904;8.110;2022-09-21T17:09:20;1.63;;;0.70;;
21771;SDS011;11047;47.904;8.110;2022-09-21T17:11:49;1.65;;;0.73;;
21771;SDS011;11047;47.904;8.110;2022-09-21T17:14:18;1.63;;;0.75;;
21771;SDS011;11047;47.904;8.110;2022-09-21T17:16:46;2.97;;;0.65;;
21771;SDS011;11047;47.904;8.110;2022-09-21T17:19:15;1.40;;;0.50;;
21771;SDS011;11047;47.904;8.110;2022-09-21T17:21:43;0.82;;;0.50;;
21771;SDS011;11047;47.904;8.110;2022-09-21T17:24:11;1.30;;;0.60;;
21771;SDS011;11047;47.904;8.110;2022-09-21T17:26:40;2.30;;;0.50;;
21771;SDS011;11047;47.904;8.110;2022-09-21T17:29:18;0.73;;;0.60;;
21771;SDS011;11047;47.904;8.110;2022-09-21T17:31:47;2.30;;;0.60;;
21771;SDS011;11047;47.904;8.110;2022-09-21T17:34:17;1.75;;;0.57;;
21771;SDS011;11047;47.904;8.110;2022-09-21T17:36:46;2.70;;;0.60;;
21771;SDS011;11047;47.904;8.110;2022-09-21T17:39:13;0.50;;;0.50;;
21771;SDS011;11047;47.904;8.110;2022-09-21T17:41:44;0.73;;;0.57;;
21771;SDS011;11047;47.904;8.110;2022-09-21T17:44:17;1.10;;;0.60;;
21771;SDS011;11047;47.904;8.110;2022-09-21T17:47:07;1.88;;;0.70;;
21771;SDS011;11047;47.904;8.110;2022-09-21T17:49:38;1.75;;;0.60;;
21771;SDS011;11047;47.904;8.110;2022-09-21T17:52:08;1.30;;;0.60;;
21771;SDS011;11047;47.904;8.110;2022-09-21T17:54:58;0.73;;;0.60;;
21771;SDS011;11047;47.904;8.110;2022-09-21T17:57:28;0.90;;;0.70;;
21771;SDS011;11047;47.904;8.110;2022-09-21T18:00:09;1.05;;;0.50;;
21771;SDS011;11047;47.904;8.110;2022-09-21T18:02:38;2.20;;;0.70;;
21771;SDS011;11047;47.904;8.110;2022-09-21T18:05:08;0.73;;;0.65;;
21771;SDS011;11047;47.904;8.110;2022-09-21T18:07:44;4.32;;;0.70;;
21771;SDS011;11047;47.904;8.110;2022-09-21T18:10:12;3.83;;;0.70;;
21771;SDS011;11047;47.904;8.110;2022-09-21T18:15:52;2.05;;;0.60;;